sensor_id;sensor_type;location;lat;lon;timestamp;pressure;altitude;pressure_sealevel;temperature;humidity
23635;BME280;11994;51.038;16.974;2023-04-20T00:01:43;100534.14;;;6.41;83.79
23635;BME280;11994;51.038;16.974;2023-04-20T00:04:09;100532.23;;;6.40;83.83
23635;BME280;11994;51.038;16.974;2023-04-20T00:06:34;100535.37;;;6.39;83.69
23635;BME280;11994;51.038;16.974;2023-04-20T00:08:59;100534.84;;;6.39;83.74
23635;BME280;11994;51.038;16.974;2023-04-20T00:11:26;100533.44;;;6.39;83.75
23635;BME280;11994;51.038;16.974;2023-04-20T00:13:51;100531.38;;;6.40;83.91
23635;BME280;11994;51.038;16.974;2023-04-20T00:16:16;100533.98;;;6.40;83.75
23635;BME280;11994;51.038;16.974;2023-04-20T00:18:43;100537.61;;;6.36;83.75
23635;BME280;11994;51.038;16.974;2023-04-20T00:21:10;100533.46;;;6.33;83.78
23635;BME280;11994;51.038;16.974;2023-04-20T00:23:35;100525.13;;;6.31;83.82
23635;BME280;11994;51.038;16.974;2023-04-20T00:26:00;100517.83;;;6.31;84.05
23635;BME280;11994;51.038;16.974;2023-04-20T00:28:25;100518.17;;;6.31;84.06
23635;BME280;11994;51.038;16.974;2023-04-20T00:30:51;100523.22;;;6.32;84.20
23635;BME280;11994;51.038;16.974;2023-04-20T00:33:16;100524.08;;;6.33;84.20
23635;BME280;11994;51.038;16.974;2023-04-20T00:35:41;100527.73;;;6.34;84.27
23635;BME280;11994;51.038;16.974;2023-04-20T00:38:06;100532.08;;;6.33;84.47
23635;BME280;11994;51.038;16.974;2023-04-20T00:40:32;100537.29;;;6.35;84.40
23635;BME280;11994;51.038;16.974;2023-04-20T00:43:07;100537.45;;;6.35;84.54
23635;BME280;11994;51.038;16.974;2023-04-20T00:45:32;100537.27;;;6.36;84.50
23635;BME280;11994;51.038;16.974;2023-04-20T00:47:58;100535.73;;;6.35;84.43
23635;BME280;11994;51.038;16.974;2023-04-20T00:50:23;100534.67;;;6.33;84.38
23635;BME280;11994;51.038;16.974;2023-04-20T00:52:48;100534.86;;;6.32;84.46
23635;BME280;11994;51.038;16.974;2023-04-20T00:55:13;100538.33;;;6.31;84.59
23635;BME280;11994;51.038;16.974;2023-04-20T00:57:39;100533.45;;;6.29;84.59
23635;BME280;11994;51.038;16.974;2023-04-20T01:00:05;100538.49;;;6.29;84.70
23635;BME280;11994;51.038;16.974;2023-04-20T01:02:31;100537.45;;;6.31;84.96
23635;BME280;11994;51.038;16.974;2023-04-20T01:04:56;100532.08;;;6.33;84.94
23635;BME280;11994;51.038;16.974;2023-04-20T01:07:21;100531.73;;;6.33;85.05
23635;BME280;11994;51.038;16.974;2023-04-20T01:09:47;100525.83;;;6.33;85.11
23635;BME280;11994;51.038;16.974;2023-04-20T01:12:12;100520.61;;;6.34;85.18
23635;BME280;11994;51.038;16.974;2023-04-20T01:14:37;100522.16;;;6.35;85.17
23635;BME280;11994;51.038;16.974;2023-04-20T01:17:02;100523.54;;;6.36;85.31
23635;BME280;11994;51.038;16.974;2023-04-20T01:19:28;100525.81;;;6.36;85.37
23635;BME280;11994;51.038;16.974;2023-04-20T01:21:53;100528.24;;;6.38;85.34
23635;BME280;11994;51.038;16.974;2023-04-20T01:24:19;100526.84;;;6.44;85.46
23635;BME280;11994;51.038;16.974;2023-04-20T01:26:44;100528.05;;;6.50;85.38
23635;BME280;11994;51.038;16.974;2023-04-20T01:29:10;100518.83;;;6.58;85.52
23635;BME280;11994;51.038;16.974;2023-04-20T01:31:35;100513.77;;;6.63;85.45
23635;BME280;11994;51.038;16.974;2023-04-20T01:34:00;100516.71;;;6.66;85.45
23635;BME280;11994;51.038;16.974;2023-04-20T01:36:25;100516.70;;;6.70;85.61
23635;BME280;11994;51.038;16.974;2023-04-20T01:38:51;100522.79;;;6.72;85.46
23635;BME280;11994;51.038;16.974;2023-04-20T01:41:16;100518.10;;;6.70;85.27
23635;BME280;11994;51.038;16.974;2023-04-20T01:43:41;100514.11;;;6.67;85.32
23635;BME280;11994;51.038;16.974;2023-04-20T01:46:07;100506.82;;;6.65;85.23
23635;BME280;11994;51.038;16.974;2023-04-20T01:48:32;100501.43;;;6.62;85.20
23635;BME280;11994;51.038;16.974;2023-04-20T01:50:57;100499.36;;;6.62;85.32
23635;BME280;11994;51.038;16.974;2023-04-20T01:53:22;100498.14;;;6.61;85.36
23635;BME280;11994;51.038;16.974;2023-04-20T01:55:49;100501.44;;;6.61;85.15
23635;BME280;11994;51.038;16.974;2023-04-20T01:58:14;100497.98;;;6.60;85.29
23635;BME280;11994;51.038;16.974;2023-04-20T02:00:40;100499.02;;;6.59;85.22
23635;BME280;11994;51.038;16.974;2023-04-20T02:03:05;100499.88;;;6.58;85.34
23635;BME280;11994;51.038;16.974;2023-04-20T02:05:30;100498.83;;;6.56;85.35
23635;BME280;11994;51.038;16.974;2023-04-20T02:07:56;100496.06;;;6.57;85.38
23635;BME280;11994;51.038;16.974;2023-04-20T02:10:21;100497.28;;;6.59;85.26
23635;BME280;11994;51.038;16.974;2023-04-20T02:12:47;100497.79;;;6.62;85.43
23635;BME280;11994;51.038;16.974;2023-04-20T02:15:12;100502.13;;;6.65;85.30
23635;BME280;11994;51.038;16.974;2023-04-20T02:17:38;100503.16;;;6.68;85.47
23635;BME280;11994;51.038;16.974;2023-04-20T02:20:05;100503.84;;;6.70;85.44
23635;BME280;11994;51.038;16.974;2023-04-20T02:22:31;100498.98;;;6.70;85.37
23635;BME280;11994;51.038;16.974;2023-04-20T02:24:59;100497.94;;;6.70;85.35
23635;BME280;11994;51.038;16.974;2023-04-20T02:27:25;100488.22;;;6.69;85.24
23635;BME280;11994;51.038;16.974;2023-04-20T02:29:51;100491.34;;;6.67;85.33
23635;BME280;11994;51.038;16.974;2023-04-20T02:32:16;100491.02;;;6.64;85.21
23635;BME280;11994;51.038;16.974;2023-04-20T02:34:41;100491.70;;;6.62;85.35
23635;BME280;11994;51.038;16.974;2023-04-20T02:37:06;100499.18;;;6.60;85.36
23635;BME280;11994;51.038;16.974;2023-04-20T02:39:31;100504.22;;;6.59;85.36
23635;BME280;11994;51.038;16.974;2023-04-20T02:41:57;100498.85;;;6.59;85.29
23635;BME280;11994;51.038;16.974;2023-04-20T02:44:22;100499.19;;;6.60;85.37
23635;BME280;11994;51.038;16.974;2023-04-20T02:46:47;100501.27;;;6.63;85.40
23635;BME280;11994;51.038;16.974;2023-04-20T02:49:12;100499.34;;;6.65;85.58
23635;BME280;11994;51.038;16.974;2023-04-20T02:51:38;100496.73;;;6.66;85.49
23635;BME280;11994;51.038;16.974;2023-04-20T02:54:03;100490.66;;;6.64;85.40
23635;BME280;11994;51.038;16.974;2023-04-20T02:56:28;100494.83;;;6.63;85.60
23635;BME280;11994;51.038;16.974;2023-04-20T02:58:53;100497.08;;;6.66;85.59
23635;BME280;11994;51.038;16.974;2023-04-20T03:01:19;100492.03;;;6.68;85.42
23635;BME280;11994;51.038;16.974;2023-04-20T03:03:44;100490.46;;;6.68;85.44
23635;BME280;11994;51.038;16.974;2023-04-20T03:06:09;100486.65;;;6.68;85.40
23635;BME280;11994;51.038;16.974;2023-04-20T03:08:34;100491.35;;;6.68;85.34
23635;BME280;11994;51.038;16.974;2023-04-20T03:11:00;100485.61;;;6.65;85.36
23635;BME280;11994;51.038;16.974;2023-04-20T03:13:25;100490.49;;;6.61;85.30
23635;BME280;11994;51.038;16.974;2023-04-20T03:15:50;100488.77;;;6.59;85.38
23635;BME280;11994;51.038;16.974;2023-04-20T03:18:16;100493.45;;;6.58;85.28
23635;BME280;11994;51.038;16.974;2023-04-20T03:20:41;100493.64;;;6.56;85.43
23635;BME280;11994;51.038;16.974;2023-04-20T03:23:06;100493.29;;;6.56;85.37
23635;BME280;11994;51.038;16.974;2023-04-20T03:25:31;100487.90;;;6.54;85.39
23635;BME280;11994;51.038;16.974;2023-04-20T03:27:57;100487.40;;;6.51;85.38
23635;BME280;11994;51.038;16.974;2023-04-20T03:30:22;100489.13;;;6.53;85.51
23635;BME280;11994;51.038;16.974;2023-04-20T03:32:47;100495.38;;;6.55;85.63
23635;BME280;11994;51.038;16.974;2023-04-20T03:35:12;100493.28;;;6.56;85.61
23635;BME280;11994;51.038;16.974;2023-04-20T03:37:38;100495.02;;;6.59;85.83
23635;BME280;11994;51.038;16.974;2023-04-20T03:40:03;100496.94;;;6.60;85.65
23635;BME280;11994;51.038;16.974;2023-04-20T03:42:30;100497.27;;;6.58;85.66
23635;BME280;11994;51.038;16.974;2023-04-20T03:44:55;100498.84;;;6.55;85.77
23635;BME280;11994;51.038;16.974;2023-04-20T03:47:21;100502.84;;;6.54;85.86
23635;BME280;11994;51.038;16.974;2023-04-20T03:49:46;100500.94;;;6.53;86.00
23635;BME280;11994;51.038;16.974;2023-04-20T03:52:11;100507.55;;;6.52;86.01
23635;BME280;11994;51.038;16.974;2023-04-20T03:54:36;100516.58;;;6.51;86.02
23635;BME280;11994;51.038;16.974;2023-04-20T03:57:01;100516.92;;;6.50;86.04
23635;BME280;11994;51.038;16.974;2023-04-20T03:59:27;100517.98;;;6.48;86.06
23635;BME280;11994;51.038;16.974;2023-04-20T04:01:53;100518.66;;;6.47;86.15
23635;BME280;11994;51.038;16.974;2023-04-20T04:04:18;100519.38;;;6.45;86.29
23635;BME280;11994;51.038;16.974;2023-04-20T04:06:44;100507.20;;;6.47;86.25
23635;BME280;11994;51.038;16.974;2023-04-20T04:09:09;100503.39;;;6.48;86.26
23635;BME280;11994;51.038;16.974;2023-04-20T04:11:34;100499.73;;;6.48;86.16
23635;BME280;11994;51.038;16.974;2023-04-20T04:13:59;100495.38;;;6.49;86.10
23635;BME280;11994;51.038;16.974;2023-04-20T04:16:25;100492.44;;;6.49;86.10
23635;BME280;11994;51.038;16.974;2023-04-20T04:18:50;100497.12;;;6.49;86.00
23635;BME280;11994;51.038;16.974;2023-04-20T04:21:15;100500.95;;;6.47;86.14
23635;BME280;11994;51.038;16.974;2023-04-20T04:23:41;100509.46;;;6.48;86.23
23635;BME280;11994;51.038;16.974;2023-04-20T04:26:06;100514.49;;;6.50;86.39
23635;BME280;11994;51.038;16.974;2023-04-20T04:28:32;100512.23;;;6.52;86.38
23635;BME280;11994;51.038;16.974;2023-04-20T04:30:57;100517.45;;;6.54;86.39
23635;BME280;11994;51.038;16.974;2023-04-20T04:33:25;100519.02;;;6.55;86.34
23635;BME280;11994;51.038;16.974;2023-04-20T04:35:50;100521.95;;;6.54;86.19
23635;BME280;11994;51.038;16.974;2023-04-20T04:38:17;100524.57;;;6.55;86.18
23635;BME280;11994;51.038;16.974;2023-04-20T04:40:42;100528.73;;;6.57;86.21
23635;BME280;11994;51.038;16.974;2023-04-20T04:43:09;100527.85;;;6.63;86.36
23635;BME280;11994;51.038;16.974;2023-04-20T04:45:38;100533.56;;;6.69;86.37
23635;BME280;11994;51.038;16.974;2023-04-20T04:48:05;100527.13;;;6.73;86.46
23635;BME280;11994;51.038;16.974;2023-04-20T04:50:30;100528.33;;;6.76;86.29
23635;BME280;11994;51.038;16.974;2023-04-20T04:52:55;100524.34;;;6.74;86.20
23635;BME280;11994;51.038;16.974;2023-04-20T04:55:20;100525.03;;;6.73;86.22
23635;BME280;11994;51.038;16.974;2023-04-20T04:57:46;100527.12;;;6.73;86.21
23635;BME280;11994;51.038;16.974;2023-04-20T05:00:11;100526.08;;;6.74;86.35
23635;BME280;11994;51.038;16.974;2023-04-20T05:02:36;100527.99;;;6.75;86.35
23635;BME280;11994;51.038;16.974;2023-04-20T05:05:02;100529.20;;;6.77;86.47
23635;BME280;11994;51.038;16.974;2023-04-20T05:07:27;100529.54;;;6.79;86.53
23635;BME280;11994;51.038;16.974;2023-04-20T05:09:52;100532.50;;;6.78;86.44
23635;BME280;11994;51.038;16.974;2023-04-20T05:12:18;100528.67;;;6.77;86.30
23635;BME280;11994;51.038;16.974;2023-04-20T05:14:43;100532.16;;;6.76;86.29
23635;BME280;11994;51.038;16.974;2023-04-20T05:17:09;100531.81;;;6.73;86.30
23635;BME280;11994;51.038;16.974;2023-04-20T05:19:34;100533.55;;;6.75;86.22
23635;BME280;11994;51.038;16.974;2023-04-20T05:21:59;100535.63;;;6.79;86.43
23635;BME280;11994;51.038;16.974;2023-04-20T05:24:24;100536.66;;;6.83;86.44
23635;BME280;11994;51.038;16.974;2023-04-20T05:26:50;100535.95;;;6.86;86.54
23635;BME280;11994;51.038;16.974;2023-04-20T05:29:15;100535.59;;;6.89;86.47
23635;BME280;11994;51.038;16.974;2023-04-20T05:31:40;100539.59;;;6.92;86.50
23635;BME280;11994;51.038;16.974;2023-04-20T05:34:06;100536.27;;;6.95;86.75
23635;BME280;11994;51.038;16.974;2023-04-20T05:36:31;100536.27;;;6.96;86.51
23635;BME280;11994;51.038;16.974;2023-04-20T05:38:57;100532.44;;;6.94;86.60
23635;BME280;11994;51.038;16.974;2023-04-20T05:41:23;100540.77;;;6.96;86.45
23635;BME280;11994;51.038;16.974;2023-04-20T05:43:51;100544.94;;;6.96;86.47
23635;BME280;11994;51.038;16.974;2023-04-20T05:46:16;100547.91;;;6.97;86.51
23635;BME280;11994;51.038;16.974;2023-04-20T05:48:42;100550.17;;;6.95;86.47
23635;BME280;11994;51.038;16.974;2023-04-20T05:51:07;100549.83;;;6.94;86.64
23635;BME280;11994;51.038;16.974;2023-04-20T05:53:32;100549.14;;;6.95;86.75
23635;BME280;11994;51.038;16.974;2023-04-20T05:55:57;100549.47;;;6.99;86.81
23635;BME280;11994;51.038;16.974;2023-04-20T05:58:23;100551.02;;;7.02;86.83
23635;BME280;11994;51.038;16.974;2023-04-20T06:00:48;100552.58;;;7.07;86.94
23635;BME280;11994;51.038;16.974;2023-04-20T06:03:13;100553.24;;;7.11;87.04
23635;BME280;11994;51.038;16.974;2023-04-20T06:05:39;100552.18;;;7.16;86.97
23635;BME280;11994;51.038;16.974;2023-04-20T06:08:04;100556.70;;;7.18;86.82
23635;BME280;11994;51.038;16.974;2023-04-20T06:10:29;100557.89;;;7.21;87.12
23635;BME280;11994;51.038;16.974;2023-04-20T06:12:56;100557.70;;;7.27;87.19
23635;BME280;11994;51.038;16.974;2023-04-20T06:15:21;100559.59;;;7.31;87.14
23635;BME280;11994;51.038;16.974;2023-04-20T06:17:47;100559.75;;;7.35;87.25
23635;BME280;11994;51.038;16.974;2023-04-20T06:20:12;100563.39;;;7.36;87.08
23635;BME280;11994;51.038;16.974;2023-04-20T06:22:41;100565.83;;;7.38;87.23
23635;BME280;11994;51.038;16.974;2023-04-20T06:25:08;100574.16;;;7.41;87.23
23635;BME280;11994;51.038;16.974;2023-04-20T06:27:34;100577.27;;;7.45;87.39
23635;BME280;11994;51.038;16.974;2023-04-20T06:29:59;100579.01;;;7.48;87.08
23635;BME280;11994;51.038;16.974;2023-04-20T06:32:25;100580.55;;;7.50;87.18
23635;BME280;11994;51.038;16.974;2023-04-20T06:34:50;100585.20;;;7.58;87.29
23635;BME280;11994;51.038;16.974;2023-04-20T06:37:16;100589.17;;;7.66;87.33
23635;BME280;11994;51.038;16.974;2023-04-20T06:39:41;100586.34;;;7.72;87.42
23635;BME280;11994;51.038;16.974;2023-04-20T06:42:07;100587.36;;;7.77;87.37
23635;BME280;11994;51.038;16.974;2023-04-20T06:44:32;100588.57;;;7.80;87.32
23635;BME280;11994;51.038;16.974;2023-04-20T06:46:57;100591.50;;;7.83;87.23
23635;BME280;11994;51.038;16.974;2023-04-20T06:49:23;100586.61;;;7.85;87.26
23635;BME280;11994;51.038;16.974;2023-04-20T06:51:48;100587.98;;;7.89;87.47
23635;BME280;11994;51.038;16.974;2023-04-20T06:54:13;100590.74;;;7.94;87.38
23635;BME280;11994;51.038;16.974;2023-04-20T06:56:39;100589.67;;;7.95;87.20
23635;BME280;11994;51.038;16.974;2023-04-20T06:59:04;100590.01;;;7.99;87.29
23635;BME280;11994;51.038;16.974;2023-04-20T07:01:30;100593.34;;;7.97;87.14
23635;BME280;11994;51.038;16.974;2023-04-20T07:03:55;100593.66;;;7.99;87.27
23635;BME280;11994;51.038;16.974;2023-04-20T07:06:20;100595.39;;;8.02;87.30
23635;BME280;11994;51.038;16.974;2023-04-20T07:08:45;100596.60;;;8.02;87.17
23635;BME280;11994;51.038;16.974;2023-04-20T07:11:11;100592.95;;;8.01;87.08
23635;BME280;11994;51.038;16.974;2023-04-20T07:13:36;100594.52;;;8.03;87.22
23635;BME280;11994;51.038;16.974;2023-04-20T07:16:01;100593.45;;;8.06;87.33
23635;BME280;11994;51.038;16.974;2023-04-20T07:18:26;100590.80;;;8.09;87.21
23635;BME280;11994;51.038;16.974;2023-04-20T07:20:52;100594.61;;;8.11;87.43
23635;BME280;11994;51.038;16.974;2023-04-20T07:23:17;100593.91;;;8.13;87.16
23635;BME280;11994;51.038;16.974;2023-04-20T07:25:43;100596.34;;;8.14;86.97
23635;BME280;11994;51.038;16.974;2023-04-20T07:28:08;100593.37;;;8.17;87.13
23635;BME280;11994;51.038;16.974;2023-04-20T07:30:33;100594.76;;;8.21;87.28
23635;BME280;11994;51.038;16.974;2023-04-20T07:32:58;100591.38;;;8.30;87.51
23635;BME280;11994;51.038;16.974;2023-04-20T07:35:24;100594.77;;;8.40;87.66
23635;BME280;11994;51.038;16.974;2023-04-20T07:37:49;100594.31;;;8.54;87.89
23635;BME280;11994;51.038;16.974;2023-04-20T07:40:15;100596.80;;;8.66;87.70
23635;BME280;11994;51.038;16.974;2023-04-20T07:42:40;100595.83;;;8.76;87.84
23635;BME280;11994;51.038;16.974;2023-04-20T07:45:06;100597.34;;;8.83;87.29
23635;BME280;11994;51.038;16.974;2023-04-20T07:47:32;100603.43;;;8.85;87.14
23635;BME280;11994;51.038;16.974;2023-04-20T07:49:57;100606.03;;;8.85;86.99
23635;BME280;11994;51.038;16.974;2023-04-20T07:52:23;100605.00;;;8.83;86.76
23635;BME280;11994;51.038;16.974;2023-04-20T07:54:48;100603.79;;;8.83;86.87
23635;BME280;11994;51.038;16.974;2023-04-20T07:57:14;100608.14;;;8.83;87.04
23635;BME280;11994;51.038;16.974;2023-04-20T07:59:39;100602.39;;;8.84;86.75
23635;BME280;11994;51.038;16.974;2023-04-20T08:02:05;100603.41;;;8.86;87.22
23635;BME280;11994;51.038;16.974;2023-04-20T08:04:30;100605.97;;;8.91;87.23
23635;BME280;11994;51.038;16.974;2023-04-20T08:06:55;100604.95;;;8.89;86.60
23635;BME280;11994;51.038;16.974;2023-04-20T08:09:21;100606.53;;;8.87;86.50
23635;BME280;11994;51.038;16.974;2023-04-20T08:11:46;100605.48;;;8.89;86.68
23635;BME280;11994;51.038;16.974;2023-04-20T08:14:13;100605.74;;;8.96;87.14
23635;BME280;11994;51.038;16.974;2023-04-20T08:16:38;100600.67;;;9.13;87.84
23635;BME280;11994;51.038;16.974;2023-04-20T08:19:03;100602.39;;;9.30;87.75
23635;BME280;11994;51.038;16.974;2023-04-20T08:21:34;100604.75;;;9.38;87.33
23635;BME280;11994;51.038;16.974;2023-04-20T08:23:59;100602.06;;;9.42;87.17
23635;BME280;11994;51.038;16.974;2023-04-20T08:26:25;100607.10;;;9.44;87.05
23635;BME280;11994;51.038;16.974;2023-04-20T08:28:51;100611.27;;;9.46;87.00
23635;BME280;11994;51.038;16.974;2023-04-20T08:31:17;100609.19;;;9.45;86.56
23635;BME280;11994;51.038;16.974;2023-04-20T08:33:42;100603.77;;;9.46;87.08
23635;BME280;11994;51.038;16.974;2023-04-20T08:36:07;100599.64;;;9.54;87.14
23635;BME280;11994;51.038;16.974;2023-04-20T08:38:32;100593.09;;;9.61;87.34
23635;BME280;11994;51.038;16.974;2023-04-20T08:40:58;100589.79;;;9.72;87.81
23635;BME280;11994;51.038;16.974;2023-04-20T08:43:23;100603.65;;;9.80;87.75
23635;BME280;11994;51.038;16.974;2023-04-20T08:45:48;100601.63;;;9.88;87.65
23635;BME280;11994;51.038;16.974;2023-04-20T08:48:16;100605.81;;;9.88;87.29
23635;BME280;11994;51.038;16.974;2023-04-20T08:50:41;100609.69;;;9.86;86.85
23635;BME280;11994;51.038;16.974;2023-04-20T08:53:06;100607.86;;;9.79;86.45
23635;BME280;11994;51.038;16.974;2023-04-20T08:55:33;100603.86;;;9.78;86.69
23635;BME280;11994;51.038;16.974;2023-04-20T08:57:58;100604.55;;;9.79;86.65
23635;BME280;11994;51.038;16.974;2023-04-20T09:00:24;100602.80;;;9.79;86.81
23635;BME280;11994;51.038;16.974;2023-04-20T09:05:22;100611.02;;;9.91;87.12
23635;BME280;11994;51.038;16.974;2023-04-20T09:07:51;100608.59;;;10.02;87.54
23635;BME280;11994;51.038;16.974;2023-04-20T09:10:20;100609.35;;;10.11;87.23
23635;BME280;11994;51.038;16.974;2023-04-20T09:12:48;100612.39;;;10.19;87.45
23635;BME280;11994;51.038;16.974;2023-04-20T09:15:34;100604.68;;;10.30;87.43
23635;BME280;11994;51.038;16.974;2023-04-20T09:18:09;100606.79;;;10.40;87.04
23635;BME280;11994;51.038;16.974;2023-04-20T09:20:34;100613.64;;;10.39;86.56
23635;BME280;11994;51.038;16.974;2023-04-20T09:23:09;100612.38;;;10.40;86.58
23635;BME280;11994;51.038;16.974;2023-04-20T09:25:34;100615.69;;;10.42;86.28
23635;BME280;11994;51.038;16.974;2023-04-20T09:28:00;100614.46;;;10.42;86.32
23635;BME280;11994;51.038;16.974;2023-04-20T09:30:35;100621.01;;;10.48;86.40
23635;BME280;11994;51.038;16.974;2023-04-20T09:33:01;100616.75;;;10.51;86.26
23635;BME280;11994;51.038;16.974;2023-04-20T09:35:27;100619.44;;;10.47;85.91
23635;BME280;11994;51.038;16.974;2023-04-20T09:37:52;100617.66;;;10.49;86.28
23635;BME280;11994;51.038;16.974;2023-04-20T09:40:18;100610.34;;;10.58;86.72
23635;BME280;11994;51.038;16.974;2023-04-20T09:42:45;100603.33;;;10.69;86.78
23635;BME280;11994;51.038;16.974;2023-04-20T09:45:12;100605.48;;;10.75;86.42
23635;BME280;11994;51.038;16.974;2023-04-20T09:47:38;100602.77;;;10.81;86.35
23635;BME280;11994;51.038;16.974;2023-04-20T09:50:06;100600.89;;;10.87;86.19
23635;BME280;11994;51.038;16.974;2023-04-20T09:52:34;100598.43;;;10.88;86.29
23635;BME280;11994;51.038;16.974;2023-04-20T09:55:01;100593.73;;;10.95;86.24
23635;BME280;11994;51.038;16.974;2023-04-20T09:57:26;100591.56;;;10.99;86.26
23635;BME280;11994;51.038;16.974;2023-04-20T09:59:52;100590.95;;;11.12;86.70
23635;BME280;11994;51.038;16.974;2023-04-20T10:02:18;100594.70;;;11.27;86.52
23635;BME280;11994;51.038;16.974;2023-04-20T10:05:17;100592.30;;;11.33;85.84
23635;BME280;11994;51.038;16.974;2023-04-20T10:07:35;100589.84;;;11.25;84.70
23635;BME280;11994;51.038;16.974;2023-04-20T10:12:32;100592.86;;;11.22;85.20
23635;BME280;11994;51.038;16.974;2023-04-20T10:14:57;100588.54;;;11.28;85.04
23635;BME280;11994;51.038;16.974;2023-04-20T10:17:31;100588.37;;;11.28;84.89
23635;BME280;11994;51.038;16.974;2023-04-20T10:19:57;100583.77;;;11.31;84.82
23635;BME280;11994;51.038;16.974;2023-04-20T10:22:27;100583.05;;;11.39;84.83
23635;BME280;11994;51.038;16.974;2023-04-20T10:24:56;100581.16;;;11.46;85.16
23635;BME280;11994;51.038;16.974;2023-04-20T10:27:23;100582.55;;;11.64;85.34
23635;BME280;11994;51.038;16.974;2023-04-20T10:29:48;100579.91;;;11.80;84.72
23635;BME280;11994;51.038;16.974;2023-04-20T10:32:26;100580.73;;;11.83;84.48
23635;BME280;11994;51.038;16.974;2023-04-20T10:34:59;100579.23;;;11.87;84.55
23635;BME280;11994;51.038;16.974;2023-04-20T10:37:25;100577.30;;;11.95;84.34
23635;BME280;11994;51.038;16.974;2023-04-20T10:39:51;100577.80;;;11.96;83.96
23635;BME280;11994;51.038;16.974;2023-04-20T10:42:16;100575.00;;;11.96;83.93
23635;BME280;11994;51.038;16.974;2023-04-20T10:44:51;100574.23;;;11.99;83.85
23635;BME280;11994;51.038;16.974;2023-04-20T10:47:17;100571.29;;;12.04;83.43
23635;BME280;11994;51.038;16.974;2023-04-20T10:49:42;100572.48;;;11.99;83.17
23635;BME280;11994;51.038;16.974;2023-04-20T10:52:08;100568.62;;;11.98;83.68
23635;BME280;11994;51.038;16.974;2023-04-20T10:54:36;100566.61;;;12.02;83.97
23635;BME280;11994;51.038;16.974;2023-04-20T10:57:03;100557.47;;;12.10;84.03
23635;BME280;11994;51.038;16.974;2023-04-20T10:59:29;100552.66;;;12.13;83.59
23635;BME280;11994;51.038;16.974;2023-04-20T11:01:54;100555.08;;;12.14;83.62
23635;BME280;11994;51.038;16.974;2023-04-20T11:04:32;100550.76;;;12.19;83.68
23635;BME280;11994;51.038;16.974;2023-04-20T11:07:04;100552.11;;;12.28;83.89
23635;BME280;11994;51.038;16.974;2023-04-20T11:09:31;100550.72;;;12.35;83.53
23635;BME280;11994;51.038;16.974;2023-04-20T11:11:58;100549.57;;;12.38;83.50
23635;BME280;11994;51.038;16.974;2023-04-20T11:14:24;100547.96;;;12.46;83.62
23635;BME280;11994;51.038;16.974;2023-04-20T11:16:50;100546.62;;;12.64;83.83
23635;BME280;11994;51.038;16.974;2023-04-20T11:19:21;100547.02;;;12.82;81.53
23635;BME280;11994;51.038;16.974;2023-04-20T11:21:46;100543.41;;;12.91;81.35
23635;BME280;11994;51.038;16.974;2023-04-20T11:24:18;100547.13;;;13.10;80.98
23635;BME280;11994;51.038;16.974;2023-04-20T11:26:44;100539.12;;;13.20;80.34
23635;BME280;11994;51.038;16.974;2023-04-20T11:29:09;100541.39;;;13.20;81.01
23635;BME280;11994;51.038;16.974;2023-04-20T11:31:35;100537.14;;;13.33;81.23
23635;BME280;11994;51.038;16.974;2023-04-20T11:34:00;100538.02;;;13.45;81.27
23635;BME280;11994;51.038;16.974;2023-04-20T11:36:27;100537.91;;;13.48;80.18
23635;BME280;11994;51.038;16.974;2023-04-20T11:38:53;100532.30;;;13.48;80.20
23635;BME280;11994;51.038;16.974;2023-04-20T11:41:19;100531.56;;;13.54;80.48
23635;BME280;11994;51.038;16.974;2023-04-20T11:43:45;100531.23;;;13.65;80.71
23635;BME280;11994;51.038;16.974;2023-04-20T11:46:18;100531.50;;;13.74;80.47
23635;BME280;11994;51.038;16.974;2023-04-20T11:48:44;100530.73;;;13.75;80.13
23635;BME280;11994;51.038;16.974;2023-04-20T11:51:09;100523.02;;;13.80;80.13
23635;BME280;11994;51.038;16.974;2023-04-20T11:53:35;100521.23;;;13.92;79.94
23635;BME280;11994;51.038;16.974;2023-04-20T11:56:01;100518.75;;;14.04;79.53
23635;BME280;11994;51.038;16.974;2023-04-20T11:58:27;100518.54;;;14.05;78.13
23635;BME280;11994;51.038;16.974;2023-04-20T12:00:52;100516.02;;;14.07;77.47
23635;BME280;11994;51.038;16.974;2023-04-20T12:03:18;100517.16;;;14.14;77.55
23635;BME280;11994;51.038;16.974;2023-04-20T12:05:43;100511.66;;;14.27;77.71
23635;BME280;11994;51.038;16.974;2023-04-20T12:08:08;100503.45;;;14.31;77.49
23635;BME280;11994;51.038;16.974;2023-04-20T12:10:34;100502.95;;;14.30;77.78
23635;BME280;11994;51.038;16.974;2023-04-20T12:12:59;100506.39;;;14.32;76.20
23635;BME280;11994;51.038;16.974;2023-04-20T12:15:25;100502.80;;;14.29;74.96
23635;BME280;11994;51.038;16.974;2023-04-20T12:17:50;100500.73;;;14.28;76.10
23635;BME280;11994;51.038;16.974;2023-04-20T12:20:15;100495.89;;;14.36;76.39
23635;BME280;11994;51.038;16.974;2023-04-20T12:22:41;100497.05;;;14.43;76.26
23635;BME280;11994;51.038;16.974;2023-04-20T12:25:06;100494.19;;;14.49;76.58
23635;BME280;11994;51.038;16.974;2023-04-20T12:27:32;100493.83;;;14.64;76.50
23635;BME280;11994;51.038;16.974;2023-04-20T12:29:57;100489.16;;;14.76;75.94
23635;BME280;11994;51.038;16.974;2023-04-20T12:32:22;100488.86;;;14.89;75.91
23635;BME280;11994;51.038;16.974;2023-04-20T12:34:47;100488.75;;;14.92;74.84
23635;BME280;11994;51.038;16.974;2023-04-20T12:37:13;100481.09;;;14.89;74.48
23635;BME280;11994;51.038;16.974;2023-04-20T12:39:39;100477.52;;;14.96;73.35
23635;BME280;11994;51.038;16.974;2023-04-20T12:42:04;100478.34;;;15.07;72.32
23635;BME280;11994;51.038;16.974;2023-04-20T12:44:29;100476.54;;;15.17;73.07
23635;BME280;11994;51.038;16.974;2023-04-20T12:46:54;100475.61;;;15.28;72.97